Detall de PIREP

Printer-friendly versionPDF version

[2012/01/28 13:43:00]
Flight IATA:CT1023
Pilot Number:042
Company ICAO:CAT
Aircraft Type:B738/F
PAX:0
Departing Airport: KSEA
Destination Airport: KEWR
Alternate Airport:KBOS
Online: VATSIM
Route:SEA J70 MLP GTF DIK GEP DLL BAE J34 CRL J584 SLT FQM2
Flight Level:F350
No Slew and time accel
No pause
Crash detect
Detect pilot in Cockpit between each 30 and 45 minutes
13:43 Zero fuel Weight: 91660 Lbs, Fuel Weight: 46042 Lbs
13:43 VATSIM:KSEA 281253Z 16004KT 10SM FEW085 SCT110 OVC200 01/M03 A3044 RMK AO2 SLP317 T00111028
13:43 VATSIM:KEWR 281251Z 22003KT 10SM SCT150 BKN200 04/M04 A3005 RMK AO2 SLP174 T00391044
13:43 VOICE CATALONIAN/BOEING TRANSPORT
13:50 Parking Brakes off
13:53 Take-off
13:53 Take off Weight: 137176 Lbs
13:53 Wind: 136º @ 004 Knots Heading: 179º
13:53 POS N47º 26´ 51´´ W122º 18´ 28´´
13:53 Gear Up: 166 Knots
13:53 Flaps:5 at 166 Knots
13:53 Flaps:4 at 159 Knots
13:54 Flaps:3 at 164 Knots
13:54 Flaps:2 at 186 Knots
13:54 Flaps:1 at 213 Knots
13:54 Flaps:0 at 239 Knots
14:08 Wind:149º@012 Knots Heading: 093º Ground Speed: 436 Knots Altitude 32424 ft
14:09 TOC
14:09 Fuel Weight: 42101 Lb
14:23 Wind:151º@004 Knots Heading: 088º Ground Speed: 435 Knots Altitude 35442 ft
14:38 Wind:258º@018 Knots Heading: 089º Ground Speed: 457 Knots Altitude 35344 ft
14:53 Wind:225º@047 Knots Heading: 095º Ground Speed: 473 Knots Altitude 35236 ft
15:08 Wind:268º@036 Knots Heading: 094º Ground Speed: 477 Knots Altitude 35209 ft
15:23 Wind:279º@041 Knots Heading: 096º Ground Speed: 476 Knots Altitude 35180 ft
15:38 Wind:271º@038 Knots Heading: 099º Ground Speed: 473 Knots Altitude 35059 ft
15:53 Wind:289º@041 Knots Heading: 102º Ground Speed: 476 Knots Altitude 35062 ft
16:08 Wind:213º@038 Knots Heading: 109º Ground Speed: 442 Knots Altitude 35065 ft
16:23 Wind:275º@051 Knots Heading: 108º Ground Speed: 481 Knots Altitude 35029 ft
16:38 Wind:275º@048 Knots Heading: 123º Ground Speed: 478 Knots Altitude 35052 ft
16:53 Wind:277º@056 Knots Heading: 125º Ground Speed: 484 Knots Altitude 35019 ft
17:08 Wind:268º@060 Knots Heading: 099º Ground Speed: 495 Knots Altitude 34990 ft
17:23 Wind:261º@061 Knots Heading: 120º Ground Speed: 488 Knots Altitude 34858 ft
17:38 Wind:239º@059 Knots Heading: 100º Ground Speed: 488 Knots Altitude 34878 ft
17:53 Wind:210º@041 Knots Heading: 103º Ground Speed: 455 Knots Altitude 34858 ft
17:59 TOD
17:59 Fuel Weight: 21630 Lb
18:08 Wind:153º@035 Knots Heading: 105º Ground Speed: 375 Knots Altitude 23185 ft
18:23 Wind:207º@033 Knots Heading: 117º Ground Speed: 269 Knots Altitude 14229 ft
18:35 Flaps:1 at 202 Knots
18:38 Wind:188º@012 Knots Heading: 086º Ground Speed: 206 Knots Altitude 2883 ft
18:39 Flaps:2 at 172 Knots
18:40 Flaps:3 at 160 Knots
18:41 Gear Down: 141 Knots
18:41 Flaps:4 at 134 Knots
18:41 Flaps:5 at 132 Knots
18:41 Flaps:6 at 131 Knots
18:42 Flaps:7 at 124 Knots
18:42 Flaps:8 at 123 Knots
18:46 TouchDown:Rate -257 ft/min Speed: 108 Knots
18:46 VATSIM:KEWR 281751Z 19009KT 10SM SCT200 08/M03 A2997 RMK AO2 SLP148 T00781033 10078 20022 58024
18:46 Land
18:46 Wind:203º@009 Knots
18:46 Heading: 206º
18:46 Flight Duration: 04:53
18:46 Landing Weight: 110692 Lbs
18:46 POS N40º 41´ 19´´ W074º 10´ 01´´
18:49 Parking brakes on
18:49 Block to Block Duration: 04:59
18:49 Final Fuel: 18818 Lbls
18:49 Spent Fuel: 27224 Lbls
18:49 Flight Length: 2055 NM
18:49 TOD Land Length: 152 NM

Exportar CSV

Powered by Drupal - Modified by Danger4k